sensor_id;sensor_type;location;lat;lon;timestamp;temperature;humidity
32322;DHT22;61553;48.994;8.940;2023-04-03T00:02:07;4.10;99.90
32322;DHT22;61553;48.994;8.940;2023-04-03T00:04:33;4.00;99.90
32322;DHT22;61553;48.994;8.940;2023-04-03T00:06:58;4.00;99.90
32322;DHT22;61553;48.994;8.940;2023-04-03T00:09:24;4.00;99.90
32322;DHT22;61553;48.994;8.940;2023-04-03T00:11:50;4.00;99.90
32322;DHT22;61553;48.994;8.940;2023-04-03T00:14:16;4.00;99.90
32322;DHT22;61553;48.994;8.940;2023-04-03T00:16:41;4.00;99.90
32322;DHT22;61553;48.994;8.940;2023-04-03T00:19:07;3.90;99.90
32322;DHT22;61553;48.994;8.940;2023-04-03T00:21:33;4.00;99.90
32322;DHT22;61553;48.994;8.940;2023-04-03T00:23:59;3.90;99.90
32322;DHT22;61553;48.994;8.940;2023-04-03T00:26:24;4.00;99.90
32322;DHT22;61553;48.994;8.940;2023-04-03T00:28:50;4.00;99.90
32322;DHT22;61553;48.994;8.940;2023-04-03T00:31:16;4.00;99.90
32322;DHT22;61553;48.994;8.940;2023-04-03T00:33:42;4.00;99.90
32322;DHT22;61553;48.994;8.940;2023-04-03T00:36:09;4.00;99.90
32322;DHT22;61553;48.994;8.940;2023-04-03T00:38:35;4.00;99.90
32322;DHT22;61553;48.994;8.940;2023-04-03T00:41:01;3.90;99.90
32322;DHT22;61553;48.994;8.940;2023-04-03T00:43:27;4.00;99.90
32322;DHT22;61553;48.994;8.940;2023-04-03T00:45:57;3.90;99.90
32322;DHT22;61553;48.994;8.940;2023-04-03T00:48:34;4.00;99.90
32322;DHT22;61553;48.994;8.940;2023-04-03T00:51:03;3.90;99.90
32322;DHT22;61553;48.994;8.940;2023-04-03T00:53:35;3.90;99.90
32322;DHT22;61553;48.994;8.940;2023-04-03T00:56:06;3.80;99.90
32322;DHT22;61553;48.994;8.940;2023-04-03T00:58:38;3.80;99.90
32322;DHT22;61553;48.994;8.940;2023-04-03T01:01:08;3.70;99.90
32322;DHT22;61553;48.994;8.940;2023-04-03T01:03:35;3.70;99.90
32322;DHT22;61553;48.994;8.940;2023-04-03T01:06:01;3.70;99.90
32322;DHT22;61553;48.994;8.940;2023-04-03T01:08:27;3.80;99.90
32322;DHT22;61553;48.994;8.940;2023-04-03T01:10:52;3.70;99.90
32322;DHT22;61553;48.994;8.940;2023-04-03T01:13:30;3.70;99.90
32322;DHT22;61553;48.994;8.940;2023-04-03T01:15:56;3.60;99.90
32322;DHT22;61553;48.994;8.940;2023-04-03T01:18:24;3.40;99.90
32322;DHT22;61553;48.994;8.940;2023-04-03T01:23:57;3.30;99.90
32322;DHT22;61553;48.994;8.940;2023-04-03T01:26:25;3.30;99.90
32322;DHT22;61553;48.994;8.940;2023-04-03T01:28:53;3.30;99.90
32322;DHT22;61553;48.994;8.940;2023-04-03T01:31:26;3.20;99.90
32322;DHT22;61553;48.994;8.940;2023-04-03T01:33:54;3.20;99.90
32322;DHT22;61553;48.994;8.940;2023-04-03T01:36:22;3.20;99.90
32322;DHT22;61553;48.994;8.940;2023-04-03T01:38:49;3.20;99.90
32322;DHT22;61553;48.994;8.940;2023-04-03T01:41:15;3.30;99.90
32322;DHT22;61553;48.994;8.940;2023-04-03T01:43:42;3.20;99.90
32322;DHT22;61553;48.994;8.940;2023-04-03T01:46:07;3.30;99.90
32322;DHT22;61553;48.994;8.940;2023-04-03T01:48:33;3.30;99.90
32322;DHT22;61553;48.994;8.940;2023-04-03T01:50:59;3.30;99.90
32322;DHT22;61553;48.994;8.940;2023-04-03T01:53:24;3.30;99.90
32322;DHT22;61553;48.994;8.940;2023-04-03T01:55:50;3.30;99.90
32322;DHT22;61553;48.994;8.940;2023-04-03T01:58:16;3.30;99.90
32322;DHT22;61553;48.994;8.940;2023-04-03T02:00:42;3.30;99.90
32322;DHT22;61553;48.994;8.940;2023-04-03T02:03:07;3.40;99.90
32322;DHT22;61553;48.994;8.940;2023-04-03T02:05:33;3.40;99.90
32322;DHT22;61553;48.994;8.940;2023-04-03T02:07:59;3.40;99.90
32322;DHT22;61553;48.994;8.940;2023-04-03T02:10:25;3.40;99.90
32322;DHT22;61553;48.994;8.940;2023-04-03T02:12:50;3.40;99.90
32322;DHT22;61553;48.994;8.940;2023-04-03T02:15:17;3.50;99.90
32322;DHT22;61553;48.994;8.940;2023-04-03T02:17:42;3.50;99.90
32322;DHT22;61553;48.994;8.940;2023-04-03T02:20:09;3.40;99.90
32322;DHT22;61553;48.994;8.940;2023-04-03T02:22:35;3.40;99.90
32322;DHT22;61553;48.994;8.940;2023-04-03T02:25:00;3.40;99.90
32322;DHT22;61553;48.994;8.940;2023-04-03T02:27:26;3.50;99.90
32322;DHT22;61553;48.994;8.940;2023-04-03T02:29:52;3.50;99.90
32322;DHT22;61553;48.994;8.940;2023-04-03T02:32:18;3.50;99.90
32322;DHT22;61553;48.994;8.940;2023-04-03T02:34:43;3.60;99.90
32322;DHT22;61553;48.994;8.940;2023-04-03T02:37:09;3.50;99.90
32322;DHT22;61553;48.994;8.940;2023-04-03T02:39:34;3.50;99.90
32322;DHT22;61553;48.994;8.940;2023-04-03T02:42:00;3.50;99.90
32322;DHT22;61553;48.994;8.940;2023-04-03T02:44:26;3.50;99.90
32322;DHT22;61553;48.994;8.940;2023-04-03T02:46:52;3.60;99.90
32322;DHT22;61553;48.994;8.940;2023-04-03T02:49:17;3.60;99.90
32322;DHT22;61553;48.994;8.940;2023-04-03T02:51:43;3.50;99.90
32322;DHT22;61553;48.994;8.940;2023-04-03T02:54:09;3.50;99.90
32322;DHT22;61553;48.994;8.940;2023-04-03T02:56:35;3.50;99.90
32322;DHT22;61553;48.994;8.940;2023-04-03T02:59:00;3.60;99.90
32322;DHT22;61553;48.994;8.940;2023-04-03T03:01:26;3.60;99.90
32322;DHT22;61553;48.994;8.940;2023-04-03T03:03:57;3.50;99.90
32322;DHT22;61553;48.994;8.940;2023-04-03T03:06:22;3.60;99.90
32322;DHT22;61553;48.994;8.940;2023-04-03T03:08:48;3.60;99.90
32322;DHT22;61553;48.994;8.940;2023-04-03T03:11:13;3.60;99.90
32322;DHT22;61553;48.994;8.940;2023-04-03T03:13:39;3.60;99.90
32322;DHT22;61553;48.994;8.940;2023-04-03T03:16:06;3.60;99.90
32322;DHT22;61553;48.994;8.940;2023-04-03T03:18:32;3.50;99.90
32322;DHT22;61553;48.994;8.940;2023-04-03T03:21:00;3.50;99.90
32322;DHT22;61553;48.994;8.940;2023-04-03T03:23:26;3.60;99.90
32322;DHT22;61553;48.994;8.940;2023-04-03T03:25:57;3.60;99.90
32322;DHT22;61553;48.994;8.940;2023-04-03T03:28:23;3.60;99.90
32322;DHT22;61553;48.994;8.940;2023-04-03T03:30:48;3.60;99.90
32322;DHT22;61553;48.994;8.940;2023-04-03T03:33:14;3.60;99.90
32322;DHT22;61553;48.994;8.940;2023-04-03T03:35:39;3.60;99.90
32322;DHT22;61553;48.994;8.940;2023-04-03T03:38:05;3.50;99.90
32322;DHT22;61553;48.994;8.940;2023-04-03T03:40:31;3.50;99.90
32322;DHT22;61553;48.994;8.940;2023-04-03T03:42:56;3.50;99.90
32322;DHT22;61553;48.994;8.940;2023-04-03T03:45:22;3.50;99.90
32322;DHT22;61553;48.994;8.940;2023-04-03T03:47:48;3.40;99.90
32322;DHT22;61553;48.994;8.940;2023-04-03T03:50:14;3.50;99.90
32322;DHT22;61553;48.994;8.940;2023-04-03T03:52:39;3.40;99.90
32322;DHT22;61553;48.994;8.940;2023-04-03T03:55:05;3.50;99.90
32322;DHT22;61553;48.994;8.940;2023-04-03T03:57:31;3.50;99.90
32322;DHT22;61553;48.994;8.940;2023-04-03T03:59:56;3.40;99.90
32322;DHT22;61553;48.994;8.940;2023-04-03T04:02:22;3.50;99.90
32322;DHT22;61553;48.994;8.940;2023-04-03T04:04:48;3.50;99.90
32322;DHT22;61553;48.994;8.940;2023-04-03T04:07:14;3.40;99.90
32322;DHT22;61553;48.994;8.940;2023-04-03T04:09:40;3.50;99.90
32322;DHT22;61553;48.994;8.940;2023-04-03T04:12:05;3.40;99.90
32322;DHT22;61553;48.994;8.940;2023-04-03T04:14:31;3.50;99.90
32322;DHT22;61553;48.994;8.940;2023-04-03T04:16:57;3.50;99.90
32322;DHT22;61553;48.994;8.940;2023-04-03T04:19:22;3.50;99.90
32322;DHT22;61553;48.994;8.940;2023-04-03T04:21:48;3.50;99.90
32322;DHT22;61553;48.994;8.940;2023-04-03T04:24:14;3.40;99.90
32322;DHT22;61553;48.994;8.940;2023-04-03T04:26:39;3.30;99.90
32322;DHT22;61553;48.994;8.940;2023-04-03T04:29:05;3.20;99.90
32322;DHT22;61553;48.994;8.940;2023-04-03T04:31:31;3.10;99.90
32322;DHT22;61553;48.994;8.940;2023-04-03T04:33:57;3.10;99.90
32322;DHT22;61553;48.994;8.940;2023-04-03T04:36:22;3.00;99.90
32322;DHT22;61553;48.994;8.940;2023-04-03T04:38:48;3.00;99.90
32322;DHT22;61553;48.994;8.940;2023-04-03T04:41:13;2.90;99.90
32322;DHT22;61553;48.994;8.940;2023-04-03T04:43:40;3.00;99.90
32322;DHT22;61553;48.994;8.940;2023-04-03T04:46:08;3.00;99.90
32322;DHT22;61553;48.994;8.940;2023-04-03T04:48:34;2.90;99.90
32322;DHT22;61553;48.994;8.940;2023-04-03T04:51:01;2.90;99.90
32322;DHT22;61553;48.994;8.940;2023-04-03T04:53:27;2.90;99.90
32322;DHT22;61553;48.994;8.940;2023-04-03T04:55:53;2.90;99.90
32322;DHT22;61553;48.994;8.940;2023-04-03T04:58:19;2.80;99.90
32322;DHT22;61553;48.994;8.940;2023-04-03T05:00:45;2.80;99.90
32322;DHT22;61553;48.994;8.940;2023-04-03T05:03:11;2.70;99.90
32322;DHT22;61553;48.994;8.940;2023-04-03T05:05:37;2.70;99.90
32322;DHT22;61553;48.994;8.940;2023-04-03T05:08:03;2.60;99.90
32322;DHT22;61553;48.994;8.940;2023-04-03T05:10:29;2.60;99.90
32322;DHT22;61553;48.994;8.940;2023-04-03T05:12:55;2.60;99.90
32322;DHT22;61553;48.994;8.940;2023-04-03T05:15:21;2.60;99.90
32322;DHT22;61553;48.994;8.940;2023-04-03T05:17:47;2.70;99.90
32322;DHT22;61553;48.994;8.940;2023-04-03T05:20:12;2.70;99.90
32322;DHT22;61553;48.994;8.940;2023-04-03T05:22:38;2.80;99.90
32322;DHT22;61553;48.994;8.940;2023-04-03T05:25:05;2.80;99.90
32322;DHT22;61553;48.994;8.940;2023-04-03T05:27:31;2.80;99.90
32322;DHT22;61553;48.994;8.940;2023-04-03T05:29:56;2.90;99.90
32322;DHT22;61553;48.994;8.940;2023-04-03T05:32:23;2.90;99.90
32322;DHT22;61553;48.994;8.940;2023-04-03T05:34:50;3.00;99.90
32322;DHT22;61553;48.994;8.940;2023-04-03T05:37:17;3.00;99.90
32322;DHT22;61553;48.994;8.940;2023-04-03T05:39:42;3.00;99.90
32322;DHT22;61553;48.994;8.940;2023-04-03T05:42:08;3.00;99.90
32322;DHT22;61553;48.994;8.940;2023-04-03T05:44:34;3.00;99.90
32322;DHT22;61553;48.994;8.940;2023-04-03T05:47:00;3.00;99.90
32322;DHT22;61553;48.994;8.940;2023-04-03T05:49:26;3.00;99.90
32322;DHT22;61553;48.994;8.940;2023-04-03T05:51:51;3.10;99.90
32322;DHT22;61553;48.994;8.940;2023-04-03T05:54:28;3.20;99.90
32322;DHT22;61553;48.994;8.940;2023-04-03T05:56:54;3.30;99.90
32322;DHT22;61553;48.994;8.940;2023-04-03T05:59:21;3.30;99.90
32322;DHT22;61553;48.994;8.940;2023-04-03T06:01:47;3.30;99.90
32322;DHT22;61553;48.994;8.940;2023-04-03T06:04:13;3.50;99.90
32322;DHT22;61553;48.994;8.940;2023-04-03T06:06:44;3.40;99.90
32322;DHT22;61553;48.994;8.940;2023-04-03T06:09:10;3.40;99.90
32322;DHT22;61553;48.994;8.940;2023-04-03T06:11:36;3.50;99.90
32322;DHT22;61553;48.994;8.940;2023-04-03T06:14:02;3.50;99.90
32322;DHT22;61553;48.994;8.940;2023-04-03T06:16:28;3.40;99.90
32322;DHT22;61553;48.994;8.940;2023-04-03T06:18:54;3.50;99.90
32322;DHT22;61553;48.994;8.940;2023-04-03T06:21:20;3.60;99.90
32322;DHT22;61553;48.994;8.940;2023-04-03T06:23:46;3.50;99.90
32322;DHT22;61553;48.994;8.940;2023-04-03T06:26:11;3.50;99.90
32322;DHT22;61553;48.994;8.940;2023-04-03T06:28:37;3.60;99.90
32322;DHT22;61553;48.994;8.940;2023-04-03T06:31:02;3.60;99.90
32322;DHT22;61553;48.994;8.940;2023-04-03T06:33:28;3.70;99.90
32322;DHT22;61553;48.994;8.940;2023-04-03T06:36:03;3.70;99.90
32322;DHT22;61553;48.994;8.940;2023-04-03T06:38:29;3.90;99.90
32322;DHT22;61553;48.994;8.940;2023-04-03T06:40:55;3.90;99.90
32322;DHT22;61553;48.994;8.940;2023-04-03T06:43:21;4.10;99.90
32322;DHT22;61553;48.994;8.940;2023-04-03T06:45:47;4.20;99.90
32322;DHT22;61553;48.994;8.940;2023-04-03T06:48:13;4.30;99.90
32322;DHT22;61553;48.994;8.940;2023-04-03T06:50:39;4.40;99.90
32322;DHT22;61553;48.994;8.940;2023-04-03T06:53:05;4.50;99.90
32322;DHT22;61553;48.994;8.940;2023-04-03T06:55:32;4.60;99.90
32322;DHT22;61553;48.994;8.940;2023-04-03T06:57:57;4.60;99.90
32322;DHT22;61553;48.994;8.940;2023-04-03T07:00:23;4.70;99.90
32322;DHT22;61553;48.994;8.940;2023-04-03T07:02:48;4.80;99.90
32322;DHT22;61553;48.994;8.940;2023-04-03T07:05:14;5.00;99.90
32322;DHT22;61553;48.994;8.940;2023-04-03T07:07:40;5.40;99.90
32322;DHT22;61553;48.994;8.940;2023-04-03T07:10:07;5.70;99.90
32322;DHT22;61553;48.994;8.940;2023-04-03T07:12:33;5.70;99.90
32322;DHT22;61553;48.994;8.940;2023-04-03T07:14:59;5.70;99.90
32322;DHT22;61553;48.994;8.940;2023-04-03T07:17:24;6.20;99.90
32322;DHT22;61553;48.994;8.940;2023-04-03T07:19:51;6.80;99.90
32322;DHT22;61553;48.994;8.940;2023-04-03T07:22:17;7.30;99.90
32322;DHT22;61553;48.994;8.940;2023-04-03T07:24:42;7.90;99.90
32322;DHT22;61553;48.994;8.940;2023-04-03T07:27:08;8.60;97.50
32322;DHT22;61553;48.994;8.940;2023-04-03T07:29:35;8.90;95.90
32322;DHT22;61553;48.994;8.940;2023-04-03T07:32:01;8.70;95.00
32322;DHT22;61553;48.994;8.940;2023-04-03T07:34:27;8.70;95.30
32322;DHT22;61553;48.994;8.940;2023-04-03T07:36:53;8.70;94.30
32322;DHT22;61553;48.994;8.940;2023-04-03T07:39:19;8.40;94.90
32322;DHT22;61553;48.994;8.940;2023-04-03T07:41:44;8.70;94.70
32322;DHT22;61553;48.994;8.940;2023-04-03T07:44:11;8.90;94.50
32322;DHT22;61553;48.994;8.940;2023-04-03T07:46:37;9.10;93.90
32322;DHT22;61553;48.994;8.940;2023-04-03T07:49:03;9.70;93.20
32322;DHT22;61553;48.994;8.940;2023-04-03T07:51:29;10.20;91.80
32322;DHT22;61553;48.994;8.940;2023-04-03T07:53:55;11.00;88.40
32322;DHT22;61553;48.994;8.940;2023-04-03T07:56:21;11.80;85.80
32322;DHT22;61553;48.994;8.940;2023-04-03T07:58:48;12.30;80.40
32322;DHT22;61553;48.994;8.940;2023-04-03T08:01:13;12.30;78.30
32322;DHT22;61553;48.994;8.940;2023-04-03T08:03:39;12.20;77.80
32322;DHT22;61553;48.994;8.940;2023-04-03T08:06:06;11.80;77.20
32322;DHT22;61553;48.994;8.940;2023-04-03T08:08:33;10.80;78.30
32322;DHT22;61553;48.994;8.940;2023-04-03T08:11:00;10.60;80.60
32322;DHT22;61553;48.994;8.940;2023-04-03T08:13:28;10.50;81.00
32322;DHT22;61553;48.994;8.940;2023-04-03T08:15:54;11.20;79.00
32322;DHT22;61553;48.994;8.940;2023-04-03T08:18:23;11.30;77.40
32322;DHT22;61553;48.994;8.940;2023-04-03T08:20:50;12.60;74.00
32322;DHT22;61553;48.994;8.940;2023-04-03T08:23:15;13.90;70.80
32322;DHT22;61553;48.994;8.940;2023-04-03T08:25:42;14.90;65.60
32322;DHT22;61553;48.994;8.940;2023-04-03T08:28:12;16.30;62.30
32322;DHT22;61553;48.994;8.940;2023-04-03T08:30:41;17.00;59.40
32322;DHT22;61553;48.994;8.940;2023-04-03T08:33:08;17.40;56.20
32322;DHT22;61553;48.994;8.940;2023-04-03T08:35:41;17.80;54.50
32322;DHT22;61553;48.994;8.940;2023-04-03T08:38:09;17.10;54.30
32322;DHT22;61553;48.994;8.940;2023-04-03T08:40:35;18.40;53.00
32322;DHT22;61553;48.994;8.940;2023-04-03T08:43:27;18.50;51.00
32322;DHT22;61553;48.994;8.940;2023-04-03T08:45:55;19.90;47.60
32322;DHT22;61553;48.994;8.940;2023-04-03T08:48:24;19.40;46.90
32322;DHT22;61553;48.994;8.940;2023-04-03T08:50:56;17.50;49.10
32322;DHT22;61553;48.994;8.940;2023-04-03T08:53:25;17.30;49.80
32322;DHT22;61553;48.994;8.940;2023-04-03T08:55:54;16.00;52.10
32322;DHT22;61553;48.994;8.940;2023-04-03T08:58:30;15.70;51.90
32322;DHT22;61553;48.994;8.940;2023-04-03T09:01:18;15.50;51.90
32322;DHT22;61553;48.994;8.940;2023-04-03T09:03:44;14.70;52.60
32322;DHT22;61553;48.994;8.940;2023-04-03T09:06:36;13.50;53.70
32322;DHT22;61553;48.994;8.940;2023-04-03T09:09:13;13.00;56.60
32322;DHT22;61553;48.994;8.940;2023-04-03T09:11:46;12.40;56.10
32322;DHT22;61553;48.994;8.940;2023-04-03T09:16:55;11.70;57.80
32322;DHT22;61553;48.994;8.940;2023-04-03T09:22:13;11.90;58.60
32322;DHT22;61553;48.994;8.940;2023-04-03T09:24:45;12.10;57.60
32322;DHT22;61553;48.994;8.940;2023-04-03T09:27:11;11.70;58.70
32322;DHT22;61553;48.994;8.940;2023-04-03T09:29:41;11.70;58.30
32322;DHT22;61553;48.994;8.940;2023-04-03T09:32:33;11.30;58.80
32322;DHT22;61553;48.994;8.940;2023-04-03T09:35:04;11.20;59.20
32322;DHT22;61553;48.994;8.940;2023-04-03T09:37:41;11.70;59.30
32322;DHT22;61553;48.994;8.940;2023-04-03T09:40:30;12.40;57.40
32322;DHT22;61553;48.994;8.940;2023-04-03T09:43:01;12.70;56.00
32322;DHT22;61553;48.994;8.940;2023-04-03T09:45:34;12.50;56.20
32322;DHT22;61553;48.994;8.940;2023-04-03T09:51:02;13.40;55.20
32322;DHT22;61553;48.994;8.940;2023-04-03T09:53:35;15.40;52.00
32322;DHT22;61553;48.994;8.940;2023-04-03T09:56:04;15.80;49.80
32322;DHT22;61553;48.994;8.940;2023-04-03T09:58:32;15.90;50.60
32322;DHT22;61553;48.994;8.940;2023-04-03T10:01:00;17.00;48.60
32322;DHT22;61553;48.994;8.940;2023-04-03T10:03:31;15.80;49.90
32322;DHT22;61553;48.994;8.940;2023-04-03T10:05:58;15.20;51.10
32322;DHT22;61553;48.994;8.940;2023-04-03T10:08:34;14.10;53.00
32322;DHT22;61553;48.994;8.940;2023-04-03T10:11:11;13.20;53.90
32322;DHT22;61553;48.994;8.940;2023-04-03T10:13:50;12.50;55.20
32322;DHT22;61553;48.994;8.940;2023-04-03T10:16:20;11.90;57.70
32322;DHT22;61553;48.994;8.940;2023-04-03T10:18:56;11.70;57.90
32322;DHT22;61553;48.994;8.940;2023-04-03T10:26:39;10.70;60.20
32322;DHT22;61553;48.994;8.940;2023-04-03T10:31:44;10.00;63.30
32322;DHT22;61553;48.994;8.940;2023-04-03T10:34:29;10.00;62.20
32322;DHT22;61553;48.994;8.940;2023-04-03T10:42:18;10.20;63.30
32322;DHT22;61553;48.994;8.940;2023-04-03T10:45:28;10.40;58.00
32322;DHT22;61553;48.994;8.940;2023-04-03T10:53:50;10.60;63.00
32322;DHT22;61553;48.994;8.940;2023-04-03T10:59:13;10.80;60.30
32322;DHT22;61553;48.994;8.940;2023-04-03T11:01:43;10.90;61.20
32322;DHT22;61553;48.994;8.940;2023-04-03T11:04:11;11.20;61.00
32322;DHT22;61553;48.994;8.940;2023-04-03T11:06:45;10.90;61.00
32322;DHT22;61553;48.994;8.940;2023-04-03T11:09:28;10.30;62.40
32322;DHT22;61553;48.994;8.940;2023-04-03T11:12:11;10.10;62.60
32322;DHT22;61553;48.994;8.940;2023-04-03T11:14:39;9.80;63.30
32322;DHT22;61553;48.994;8.940;2023-04-03T11:30:08;8.70;65.30
32322;DHT22;61553;48.994;8.940;2023-04-03T11:35:14;8.50;65.90
32322;DHT22;61553;48.994;8.940;2023-04-03T11:37:49;8.50;65.50
32322;DHT22;61553;48.994;8.940;2023-04-03T12:01:05;8.70;66.70
32322;DHT22;61553;48.994;8.940;2023-04-03T12:03:34;8.80;65.60
32322;DHT22;61553;48.994;8.940;2023-04-03T12:08:49;9.10;65.90
32322;DHT22;61553;48.994;8.940;2023-04-03T12:11:31;9.30;64.00
32322;DHT22;61553;48.994;8.940;2023-04-03T12:16:32;9.50;62.30
32322;DHT22;61553;48.994;8.940;2023-04-03T12:35:01;9.70;58.90
32322;DHT22;61553;48.994;8.940;2023-04-03T12:46:14;9.00;62.20
32322;DHT22;61553;48.994;8.940;2023-04-03T12:48:53;9.00;62.90
32322;DHT22;61553;48.994;8.940;2023-04-03T12:51:36;8.70;62.20
32322;DHT22;61553;48.994;8.940;2023-04-03T12:54:16;8.90;63.20
32322;DHT22;61553;48.994;8.940;2023-04-03T12:56:44;9.10;62.80
32322;DHT22;61553;48.994;8.940;2023-04-03T12:59:21;9.40;63.00
32322;DHT22;61553;48.994;8.940;2023-04-03T13:01:58;9.70;60.80
32322;DHT22;61553;48.994;8.940;2023-04-03T13:04:25;9.80;59.10
32322;DHT22;61553;48.994;8.940;2023-04-03T13:06:51;9.70;58.00
32322;DHT22;61553;48.994;8.940;2023-04-03T13:09:29;9.60;59.10
32322;DHT22;61553;48.994;8.940;2023-04-03T13:11:57;9.90;59.50
32322;DHT22;61553;48.994;8.940;2023-04-03T13:14:25;10.00;58.10
32322;DHT22;61553;48.994;8.940;2023-04-03T13:16:58;10.10;56.20
32322;DHT22;61553;48.994;8.940;2023-04-03T13:19:26;10.00;57.00
32322;DHT22;61553;48.994;8.940;2023-04-03T13:22:07;9.90;58.40
32322;DHT22;61553;48.994;8.940;2023-04-03T13:24:37;9.90;60.10
32322;DHT22;61553;48.994;8.940;2023-04-03T13:27:12;9.80;60.20
32322;DHT22;61553;48.994;8.940;2023-04-03T13:29:39;9.80;59.40
32322;DHT22;61553;48.994;8.940;2023-04-03T13:32:06;10.00;59.90
32322;DHT22;61553;48.994;8.940;2023-04-03T13:34:41;9.80;58.40
32322;DHT22;61553;48.994;8.940;2023-04-03T13:37:20;9.80;59.00
32322;DHT22;61553;48.994;8.940;2023-04-03T13:39:45;10.00;59.50
32322;DHT22;61553;48.994;8.940;2023-04-03T13:42:24;9.70;57.40
32322;DHT22;61553;48.994;8.940;2023-04-03T13:47:50;9.60;57.90
32322;DHT22;61553;48.994;8.940;2023-04-03T13:50:19;9.60;58.70
32322;DHT22;61553;48.994;8.940;2023-04-03T13:55:33;9.70;58.80
32322;DHT22;61553;48.994;8.940;2023-04-03T14:03:26;9.90;58.30
32322;DHT22;61553;48.994;8.940;2023-04-03T14:05:53;9.90;57.80
32322;DHT22;61553;48.994;8.940;2023-04-03T14:08:19;9.70;56.70
32322;DHT22;61553;48.994;8.940;2023-04-03T14:10:46;9.70;58.40
32322;DHT22;61553;48.994;8.940;2023-04-03T14:13:18;9.90;58.60
32322;DHT22;61553;48.994;8.940;2023-04-03T14:15:46;10.00;57.30
32322;DHT22;61553;48.994;8.940;2023-04-03T14:18:15;9.90;57.90
32322;DHT22;61553;48.994;8.940;2023-04-03T14:20:42;9.80;57.50
32322;DHT22;61553;48.994;8.940;2023-04-03T14:23:08;9.60;56.50
32322;DHT22;61553;48.994;8.940;2023-04-03T14:25:34;9.50;56.70
32322;DHT22;61553;48.994;8.940;2023-04-03T14:28:00;9.20;57.00
32322;DHT22;61553;48.994;8.940;2023-04-03T14:30:31;8.90;57.30
32322;DHT22;61553;48.994;8.940;2023-04-03T14:32:58;8.80;57.80
32322;DHT22;61553;48.994;8.940;2023-04-03T14:35:24;9.10;57.50
32322;DHT22;61553;48.994;8.940;2023-04-03T14:37:51;9.20;56.50
32322;DHT22;61553;48.994;8.940;2023-04-03T14:40:25;9.20;57.50
32322;DHT22;61553;48.994;8.940;2023-04-03T14:42:51;9.30;57.10
32322;DHT22;61553;48.994;8.940;2023-04-03T14:45:21;9.10;56.80
32322;DHT22;61553;48.994;8.940;2023-04-03T14:47:49;8.90;56.40
32322;DHT22;61553;48.994;8.940;2023-04-03T14:50:23;8.90;56.60
32322;DHT22;61553;48.994;8.940;2023-04-03T14:52:52;9.00;57.30
32322;DHT22;61553;48.994;8.940;2023-04-03T14:55:21;9.00;56.30
32322;DHT22;61553;48.994;8.940;2023-04-03T14:57:47;9.10;56.70
32322;DHT22;61553;48.994;8.940;2023-04-03T15:00:18;9.10;56.50
32322;DHT22;61553;48.994;8.940;2023-04-03T15:02:44;9.10;56.40
32322;DHT22;61553;48.994;8.940;2023-04-03T15:05:10;8.90;57.10
32322;DHT22;61553;48.994;8.940;2023-04-03T15:07:38;9.10;55.40
32322;DHT22;61553;48.994;8.940;2023-04-03T15:12:40;9.50;56.50
32322;DHT22;61553;48.994;8.940;2023-04-03T15:15:06;9.60;56.30
32322;DHT22;61553;48.994;8.940;2023-04-03T15:17:32;9.30;56.10
32322;DHT22;61553;48.994;8.940;2023-04-03T15:19:59;8.90;56.20
32322;DHT22;61553;48.994;8.940;2023-04-03T15:22:25;8.80;56.90
32322;DHT22;61553;48.994;8.940;2023-04-03T15:24:50;8.90;56.80
32322;DHT22;61553;48.994;8.940;2023-04-03T15:27:16;9.10;55.60
32322;DHT22;61553;48.994;8.940;2023-04-03T15:29:43;9.00;55.20
32322;DHT22;61553;48.994;8.940;2023-04-03T15:32:09;9.10;54.80
32322;DHT22;61553;48.994;8.940;2023-04-03T15:34:36;9.30;54.70
32322;DHT22;61553;48.994;8.940;2023-04-03T15:37:01;9.30;54.70
32322;DHT22;61553;48.994;8.940;2023-04-03T15:39:27;9.20;52.80
32322;DHT22;61553;48.994;8.940;2023-04-03T15:41:53;9.00;53.90
32322;DHT22;61553;48.994;8.940;2023-04-03T15:44:20;9.10;54.30
32322;DHT22;61553;48.994;8.940;2023-04-03T15:46:47;9.00;54.30
32322;DHT22;61553;48.994;8.940;2023-04-03T15:49:14;8.80;54.80
32322;DHT22;61553;48.994;8.940;2023-04-03T15:51:40;8.90;54.80
32322;DHT22;61553;48.994;8.940;2023-04-03T15:54:06;9.00;54.80
32322;DHT22;61553;48.994;8.940;2023-04-03T15:56:32;9.40;55.00
32322;DHT22;61553;48.994;8.940;2023-04-03T15:58:57;9.60;55.00
32322;DHT22;61553;48.994;8.940;2023-04-03T16:01:23;9.60;53.30
32322;DHT22;61553;48.994;8.940;2023-04-03T16:03:49;9.40;53.50
32322;DHT22;61553;48.994;8.940;2023-04-03T16:06:15;9.10;54.00
32322;DHT22;61553;48.994;8.940;2023-04-03T16:08:42;8.70;55.00
32322;DHT22;61553;48.994;8.940;2023-04-03T16:11:08;8.50;56.00
32322;DHT22;61553;48.994;8.940;2023-04-03T16:13:34;8.30;56.90
32322;DHT22;61553;48.994;8.940;2023-04-03T16:16:00;8.00;56.10
32322;DHT22;61553;48.994;8.940;2023-04-03T16:18:27;8.00;56.60
32322;DHT22;61553;48.994;8.940;2023-04-03T16:20:53;8.00;56.90
32322;DHT22;61553;48.994;8.940;2023-04-03T16:23:19;8.20;57.00
32322;DHT22;61553;48.994;8.940;2023-04-03T16:25:45;8.40;57.20
32322;DHT22;61553;48.994;8.940;2023-04-03T16:28:16;8.50;56.40
32322;DHT22;61553;48.994;8.940;2023-04-03T16:30:44;8.70;55.50
32322;DHT22;61553;48.994;8.940;2023-04-03T16:33:10;8.90;56.50
32322;DHT22;61553;48.994;8.940;2023-04-03T16:35:37;8.70;55.30
32322;DHT22;61553;48.994;8.940;2023-04-03T16:38:03;8.60;55.60
32322;DHT22;61553;48.994;8.940;2023-04-03T16:40:29;8.60;56.10
32322;DHT22;61553;48.994;8.940;2023-04-03T16:42:55;8.40;55.90
32322;DHT22;61553;48.994;8.940;2023-04-03T16:45:21;8.30;56.90
32322;DHT22;61553;48.994;8.940;2023-04-03T16:47:46;8.10;57.10
32322;DHT22;61553;48.994;8.940;2023-04-03T16:50:12;7.90;57.80
32322;DHT22;61553;48.994;8.940;2023-04-03T16:52:38;7.70;58.60
32322;DHT22;61553;48.994;8.940;2023-04-03T16:55:04;7.60;58.90
32322;DHT22;61553;48.994;8.940;2023-04-03T16:57:29;7.40;58.80
32322;DHT22;61553;48.994;8.940;2023-04-03T16:59:55;7.30;59.30
32322;DHT22;61553;48.994;8.940;2023-04-03T17:02:22;7.30;59.60
32322;DHT22;61553;48.994;8.940;2023-04-03T17:04:50;7.20;59.80
32322;DHT22;61553;48.994;8.940;2023-04-03T17:07:17;6.90;60.50
32322;DHT22;61553;48.994;8.940;2023-04-03T17:09:43;6.90;60.20
32322;DHT22;61553;48.994;8.940;2023-04-03T17:12:08;6.80;60.90
32322;DHT22;61553;48.994;8.940;2023-04-03T17:14:34;6.80;61.90
32322;DHT22;61553;48.994;8.940;2023-04-03T17:17:00;6.70;61.60
32322;DHT22;61553;48.994;8.940;2023-04-03T17:19:27;6.70;62.00
32322;DHT22;61553;48.994;8.940;2023-04-03T17:21:53;6.60;62.00
32322;DHT22;61553;48.994;8.940;2023-04-03T17:43:49;6.20;62.50
32322;DHT22;61553;48.994;8.940;2023-04-03T17:46:15;6.20;63.40
32322;DHT22;61553;48.994;8.940;2023-04-03T17:48:44;6.20;63.80
32322;DHT22;61553;48.994;8.940;2023-04-03T17:51:12;6.00;63.80
32322;DHT22;61553;48.994;8.940;2023-04-03T17:53:38;5.90;64.00
32322;DHT22;61553;48.994;8.940;2023-04-03T17:56:22;5.90;64.80
32322;DHT22;61553;48.994;8.940;2023-04-03T17:58:48;5.70;64.70
32322;DHT22;61553;48.994;8.940;2023-04-03T18:01:20;5.50;65.70